Time;durP1;ratioP1;P1;durP2;ratioP2;P2;SDS_P1;SDS_P2;PMS_P1;PMS_P2;Temp;Humidity;BMP_temperature;BMP_pressure;BME280_temperature;BME280_humidity;BME280_pressure;Samples;Min_cycle;Max_cycle;Signal;HPM_P1;HPM_P2
2021/08/14 00:09:36;;;;;;;23.57;7.60;;;20.10;99.90;;;;;;20836775;28;20064;-77
2021/08/14 00:19:37;;;;;;;18.53;7.93;;;19.70;99.90;;;;;;20836197;28;20026;-77
2021/08/14 00:29:38;;;;;;;20.53;8.80;;;20.00;99.90;;;;;;20839099;28;20065;-77
2021/08/14 00:39:39;;;;;;;16.97;8.27;;;19.90;99.90;;;;;;20832073;28;20029;-76
2021/08/14 00:49:40;;;;;;;13.00;7.27;;;19.50;99.90;;;;;;20832457;28;20503;-77
2021/08/14 00:59:42;;;;;;;10.27;7.20;;;19.70;99.90;;;;;;20835418;28;20037;-77
2021/08/14 01:09:43;;;;;;;15.23;7.00;;;19.80;99.90;;;;;;20835464;28;20396;-78
2021/08/14 01:19:45;;;;;;;9.67;7.00;;;19.80;99.90;;;;;;20838722;28;20041;-77
2021/08/14 01:29:45;;;;;;;17.35;8.18;;;19.70;99.90;;;;;;20830542;28;20287;-76
2021/08/14 01:39:46;;;;;;;19.70;7.43;;;20.00;99.90;;;;;;20891172;28;20037;-77
2021/08/14 01:49:47;;;;;;;21.40;8.33;;;19.80;99.90;;;;;;20809636;28;20029;-77
2021/08/14 01:59:48;;;;;;;16.30;7.50;;;19.70;99.90;;;;;;20829387;28;20026;-77
2021/08/14 02:09:49;;;;;;;18.57;8.00;;;19.90;99.90;;;;;;20867397;28;20392;-77
2021/08/14 02:19:49;;;;;;;15.27;7.83;;;19.90;99.90;;;;;;20907495;28;20430;-77
2021/08/14 02:29:50;;;;;;;11.47;7.60;;;19.70;99.90;;;;;;20906613;28;20076;-76
2021/08/14 02:39:52;;;;;;;12.00;7.30;;;19.50;99.90;;;;;;20906906;28;20025;-77
2021/08/14 02:49:53;;;;;;;10.68;7.32;;;19.20;99.90;;;;;;20908399;28;20479;-77
2021/08/14 02:59:53;;;;;;;22.40;7.60;;;19.30;99.90;;;;;;20920364;28;20106;-78
2021/08/14 03:09:54;;;;;;;15.07;7.33;;;19.00;99.90;;;;;;20920196;28;20025;-77
2021/08/14 03:19:55;;;;;;;15.03;7.73;;;19.20;99.90;;;;;;20920782;28;20021;-77
2021/08/14 03:29:56;;;;;;;14.10;8.70;;;19.00;99.90;;;;;;20918379;28;20068;-77
2021/08/14 03:39:57;;;;;;;14.17;7.70;;;18.80;99.90;;;;;;20918651;28;20056;-77
2021/08/14 03:49:57;;;;;;;17.70;8.20;;;18.90;99.90;;;;;;20916384;28;20028;-77
2021/08/14 03:59:59;;;;;;;13.07;7.77;;;18.90;99.90;;;;;;20924716;28;20032;-77
2021/08/14 04:09:59;;;;;;;14.63;7.97;;;18.90;99.90;;;;;;20918597;28;20025;-77
2021/08/14 04:20:01;;;;;;;18.87;8.83;;;18.70;99.90;;;;;;20919858;28;20274;-77
2021/08/14 04:30:02;;;;;;;16.30;9.30;;;18.60;99.90;;;;;;20912201;28;20491;-78
2021/08/14 04:40:09;;;;;;;16.48;9.30;;;18.20;99.90;;;;;;20918690;28;20056;-79
2021/08/14 04:50:11;;;;;;;13.10;8.00;;;18.40;99.90;;;;;;20883741;28;20037;-76
2021/08/14 05:00:12;;;;;;;17.65;9.73;;;18.60;99.90;;;;;;20830390;28;20022;-78
2021/08/14 05:10:16;;;;;;;12.38;8.13;;;18.60;99.90;;;;;;20842428;28;20100;-79
2021/08/14 05:20:17;;;;;;;11.82;8.85;;;18.40;99.90;;;;;;20847642;28;20041;-78
2021/08/14 05:30:18;;;;;;;16.77;8.73;;;19.00;99.90;;;;;;20848228;28;20029;-78
2021/08/14 05:40:19;;;;;;;17.33;10.17;;;19.50;99.90;;;;;;20852368;28;20116;-78
2021/08/14 05:50:20;;;;;;;13.43;9.67;;;19.80;99.90;;;;;;20859190;28;20061;-77
2021/08/14 06:00:21;;;;;;;18.83;9.73;;;20.40;99.90;;;;;;20836485;22;20423;-77
2021/08/14 06:10:22;;;;;;;15.77;8.97;;;20.70;99.90;;;;;;20960571;28;20318;-77
2021/08/14 06:20:23;;;;;;;18.33;9.03;;;21.10;99.90;;;;;;20961944;28;20098;-76
2021/08/14 06:30:24;;;;;;;13.03;9.10;;;21.60;99.90;;;;;;20978748;28;20097;-76
2021/08/14 06:40:25;;;;;;;14.80;8.53;;;22.00;99.90;;;;;;20983120;28;20036;-77
2021/08/14 06:50:25;;;;;;;15.30;8.30;;;22.50;99.90;;;;;;20984730;28;20033;-78
2021/08/14 07:00:26;;;;;;;16.55;8.10;;;22.60;99.90;;;;;;20989901;28;20075;-77
2021/08/14 07:10:27;;;;;;;12.23;7.93;;;23.10;99.90;;;;;;20992525;28;20032;-77
2021/08/14 07:20:28;;;;;;;12.57;7.63;;;23.80;99.90;;;;;;20989875;28;20041;-80
2021/08/14 07:30:29;;;;;;;12.57;7.53;;;24.70;99.90;;;;;;20981776;28;20037;-78
2021/08/14 07:40:30;;;;;;;15.25;7.88;;;25.20;99.90;;;;;;20974146;28;20090;-77
2021/08/14 07:50:32;;;;;;;20.15;6.68;;;25.90;99.90;;;;;;20976482;28;20040;-78
2021/08/14 08:00:33;;;;;;;12.35;7.15;;;25.80;99.90;;;;;;20941954;28;20036;-76
2021/08/14 08:10:35;;;;;;;14.30;7.83;;;26.80;99.90;;;;;;20919335;28;20082;-76
2021/08/14 08:20:36;;;;;;;11.60;7.07;;;27.40;99.90;;;;;;20921317;28;20278;-76
2021/08/14 08:30:37;;;;;;;10.90;6.88;;;26.90;99.90;;;;;;20916254;28;20475;-76
2021/08/14 08:40:40;;;;;;;11.63;6.40;;;27.50;99.90;;;;;;20916418;28;20372;-76
2021/08/14 08:50:42;;;;;;;13.02;6.43;;;28.70;99.90;;;;;;20914064;28;20147;-77
2021/08/14 09:00:43;;;;;;;11.50;6.13;;;29.50;99.90;;;;;;20911612;28;20032;-75
2021/08/14 09:10:44;;;;;;;12.45;6.05;;;29.50;99.90;;;;;;20911994;28;20031;-76
2021/08/14 09:20:46;;;;;;;11.65;5.95;;;29.80;99.90;;;;;;20918794;28;20021;-79
2021/08/14 09:30:55;;;;;;;12.30;6.57;;;30.20;99.90;;;;;;20921538;28;20032;-80
2021/08/14 09:41:13;;;;;;;18.00;8.52;;;30.40;99.90;;;;;;20923394;28;20029;-79
2021/08/14 09:51:29;;;;;;;12.20;6.50;;;29.70;99.90;;;;;;20922521;28;20384;-79
2021/08/14 10:01:35;;;;;;;13.45;7.03;;;30.20;99.90;;;;;;20930544;28;20394;-78
2021/08/14 10:11:35;;;;;;;14.40;6.35;;;30.30;99.90;;;;;;20957958;28;20105;-76
2021/08/14 10:21:36;;;;;;;15.55;5.72;;;31.50;99.90;;;;;;20950481;28;20048;-77
2021/08/14 10:31:37;;;;;;;17.15;7.18;;;32.40;99.90;;;;;;20944495;28;20484;-77
2021/08/14 10:41:38;;;;;;;8.70;5.20;;;32.80;99.90;;;;;;20955500;28;20083;-79
2021/08/14 10:51:48;;;;;;;9.75;6.22;;;32.30;99.90;;;;;;20957559;28;20033;-78
2021/08/14 11:01:49;;;;;;;12.00;6.07;;;33.20;99.90;;;;;;20948104;28;20045;-80
2021/08/14 11:11:50;;;;;;;15.02;6.25;;;34.20;99.90;;;;;;20951993;28;20055;-78
2021/08/14 11:21:50;;;;;;;15.47;5.80;;;34.30;99.90;;;;;;20941226;28;20033;-80
2021/08/14 11:31:51;;;;;;;19.60;6.15;;;32.70;99.90;;;;;;20939465;28;20032;-80
2021/08/14 11:41:55;;;;;;;11.38;5.72;;;33.40;99.90;;;;;;20940257;28;20037;-80
2021/08/14 11:52:03;;;;;;;13.32;6.07;;;33.50;99.90;;;;;;20937583;28;20029;-80
2021/08/14 12:02:05;;;;;;;13.45;5.40;;;33.80;99.90;;;;;;20936154;28;20039;-78
2021/08/14 12:12:06;;;;;;;9.98;5.50;;;33.60;99.90;;;;;;20937129;28;20041;-79
2021/08/14 12:22:16;;;;;;;15.52;6.07;;;34.50;99.90;;;;;;20909189;28;20437;-74
2021/08/14 12:32:17;;;;;;;12.55;5.75;;;35.20;99.90;;;;;;20913263;28;20080;-74
2021/08/14 12:42:20;;;;;;;10.50;5.35;;;34.40;99.90;;;;;;20912873;28;20029;-72
2021/08/14 12:52:21;;;;;;;12.15;5.68;;;33.30;99.90;;;;;;20910624;28;20028;-73
2021/08/14 13:02:22;;;;;;;15.15;5.80;;;33.60;99.90;;;;;;20910893;28;20029;-74
2021/08/14 13:12:23;;;;;;;12.83;4.60;;;33.50;99.90;;;;;;20912357;28;20078;-74
2021/08/14 13:22:23;;;;;;;13.02;5.80;;;33.70;99.90;;;;;;20890458;28;20287;-75
2021/08/14 13:32:26;;;;;;;15.13;5.17;;;33.30;99.90;;;;;;20889548;28;20033;-74
2021/08/14 13:42:27;;;;;;;15.77;5.45;;;33.70;99.90;;;;;;20887205;28;20190;-73
2021/08/14 13:52:28;;;;;;;18.23;6.40;;;33.70;99.90;;;;;;20887948;28;20115;-73
2021/08/14 14:02:28;;;;;;;15.02;4.97;;;33.30;99.90;;;;;;20873681;28;20043;-73
2021/08/14 14:12:30;;;;;;;27.40;4.90;;;33.00;99.90;;;;;;20887654;28;20450;-76
2021/08/14 14:22:31;;;;;;;16.52;5.43;;;32.90;99.90;;;;;;20886361;28;20037;-75
2021/08/14 14:32:32;;;;;;;14.35;5.32;;;33.30;99.90;;;;;;20885005;28;20037;-74
2021/08/14 14:42:32;;;;;;;20.73;5.23;;;33.40;99.90;;;;;;20885703;28;20124;-72
2021/08/14 14:52:36;;;;;;;18.50;5.43;;;33.20;99.90;;;;;;20895730;28;20357;-74
2021/08/14 15:02:36;;;;;;;15.65;5.53;;;33.60;99.90;;;;;;20900190;28;20049;-72
2021/08/14 15:12:37;;;;;;;17.52;5.60;;;34.20;99.90;;;;;;20898493;28;20037;-73
2021/08/14 15:22:40;;;;;;;14.63;5.30;;;33.10;99.90;;;;;;20934938;28;20523;-73
2021/08/14 15:32:41;;;;;;;20.27;5.18;;;32.70;99.90;;;;;;20939568;28;20043;-76
2021/08/14 15:42:45;;;;;;;19.85;6.57;;;32.20;99.90;;;;;;20899752;28;20037;-78
2021/08/14 15:52:47;;;;;;;23.70;5.88;;;33.10;99.90;;;;;;20895858;28;20040;-78
2021/08/14 16:02:48;;;;;;;17.60;6.13;;;32.80;99.90;;;;;;20894254;28;20037;-77
2021/08/14 16:12:49;;;;;;;14.60;4.97;;;32.30;99.90;;;;;;20896314;28;20044;-77
2021/08/14 16:22:50;;;;;;;22.55;5.47;;;31.70;99.90;;;;;;20894635;28;20040;-79
2021/08/14 16:32:51;;;;;;;14.70;6.20;;;31.50;99.90;;;;;;20893232;28;20080;-76
2021/08/14 16:42:52;;;;;;;17.13;8.23;;;31.30;99.90;;;;;;20897371;28;20037;-76
2021/08/14 16:52:53;;;;;;;32.75;18.58;;;31.10;99.90;;;;;;20892740;28;20557;-76
2021/08/14 17:02:54;;;;;;;19.08;7.03;;;30.80;99.90;;;;;;20890888;28;20040;-76
2021/08/14 17:12:55;;;;;;;14.07;5.05;;;30.60;99.90;;;;;;20889052;28;20029;-76
2021/08/14 17:22:56;;;;;;;18.55;6.97;;;30.20;99.90;;;;;;20891351;28;20025;-77
2021/08/14 17:32:58;;;;;;;16.98;6.60;;;30.00;99.90;;;;;;20901044;28;20029;-76
2021/08/14 17:42:59;;;;;;;16.65;5.57;;;29.60;99.90;;;;;;20926618;28;20485;-78
2021/08/14 17:53:00;;;;;;;20.30;6.10;;;29.10;99.90;;;;;;20925750;28;20032;-76
2021/08/14 18:03:00;;;;;;;14.25;6.20;;;28.70;99.90;;;;;;20905249;28;20383;-75
2021/08/14 18:13:01;;;;;;;17.10;7.75;;;28.00;99.90;;;;;;20905146;28;20056;-75
2021/08/14 18:23:03;;;;;;;34.67;22.02;;;27.70;99.90;;;;;;20918525;28;20033;-76
2021/08/14 18:33:04;;;;;;;16.90;7.30;;;27.30;99.90;;;;;;20921731;28;20501;-75
2021/08/14 18:43:05;;;;;;;16.08;6.70;;;26.30;99.90;;;;;;20920593;28;20174;-75
2021/08/14 18:53:06;;;;;;;17.17;7.53;;;25.90;99.90;;;;;;20920890;28;20056;-75
2021/08/14 19:03:07;;;;;;;17.33;8.15;;;25.50;99.90;;;;;;20923620;28;20036;-75
2021/08/14 19:13:08;;;;;;;33.83;17.45;;;25.30;99.90;;;;;;20919724;28;20497;-77
2021/08/14 19:23:11;;;;;;;18.00;10.02;;;24.90;99.90;;;;;;20918800;28;20398;-74
2021/08/14 19:33:12;;;;;;;23.70;11.95;;;25.00;99.90;;;;;;20916553;28;20025;-75
2021/08/14 19:43:13;;;;;;;33.70;18.58;;;24.70;99.90;;;;;;20916021;28;20440;-75
2021/08/14 19:53:14;;;;;;;52.17;44.58;;;24.20;99.90;;;;;;20916305;28;20513;-74
2021/08/14 20:03:14;;;;;;;;;;;24.60;99.90;;;;;;20916080;28;20052;-76
2021/08/14 20:13:16;;;;;;;18.27;9.40;;;24.30;99.90;;;;;;20913270;28;19923;-75
2021/08/14 20:23:17;;;;;;;16.45;12.15;;;23.90;99.90;;;;;;20914331;28;20033;-75
2021/08/14 20:33:19;;;;;;;20.25;9.25;;;23.60;99.90;;;;;;20915632;28;20055;-75
2021/08/14 20:43:20;;;;;;;27.00;10.13;;;23.20;99.90;;;;;;20920976;28;20060;-75
2021/08/14 20:53:21;;;;;;;21.07;10.77;;;23.10;99.90;;;;;;20916121;28;20112;-74
2021/08/14 21:03:22;;;;;;;18.63;10.63;;;23.00;99.90;;;;;;20916617;28;20275;-73
2021/08/14 21:13:23;;;;;;;14.65;8.68;;;23.00;99.90;;;;;;20912329;28;20483;-73
2021/08/14 21:23:23;;;;;;;17.10;9.20;;;22.80;99.90;;;;;;20909933;28;20024;-75
2021/08/14 21:33:24;;;;;;;23.20;9.57;;;22.50;99.90;;;;;;20909166;28;20034;-76
2021/08/14 21:43:25;;;;;;;16.63;8.47;;;22.40;99.90;;;;;;20908239;28;20083;-75
2021/08/14 21:53:26;;;;;;;13.33;9.07;;;22.60;99.90;;;;;;20907642;28;20036;-75
2021/08/14 22:03:27;;;;;;;19.27;8.90;;;22.40;99.90;;;;;;20905538;28;20102;-72
2021/08/14 22:13:28;;;;;;;18.70;9.48;;;22.10;99.90;;;;;;20907596;28;20559;-74
2021/08/14 22:23:31;;;;;;;26.53;10.33;;;21.70;99.90;;;;;;20909529;28;20115;-74
2021/08/14 22:33:32;;;;;;;25.17;10.15;;;21.50;99.90;;;;;;20910338;28;20059;-73
2021/08/14 22:43:33;;;;;;;21.37;10.97;;;21.50;99.90;;;;;;20908408;28;20461;-73
2021/08/14 22:53:34;;;;;;;23.33;10.63;;;21.20;99.90;;;;;;20908800;28;20025;-73
2021/08/14 23:03:35;;;;;;;20.97;10.67;;;21.20;99.90;;;;;;20908822;28;20106;-72
2021/08/14 23:13:37;;;;;;;23.03;11.03;;;21.10;99.90;;;;;;20918445;28;20377;-73
2021/08/14 23:23:38;;;;;;;25.77;10.10;;;20.90;99.90;;;;;;20922591;28;20040;-72
2021/08/14 23:33:39;;;;;;;20.97;9.90;;;21.10;99.90;;;;;;20920955;28;20553;-73
2021/08/14 23:43:39;;;;;;;16.73;10.13;;;20.80;99.90;;;;;;20920646;28;20483;-73
2021/08/14 23:53:40;;;;;;;17.67;10.00;;;21.00;99.90;;;;;;20920224;28;20033;-73
